Wolsey, South Dakota
Current Conditions -  °F | °C
As of 10:55 PM on Saturday 25 Oct 2014 (Local Time) from KHON Reporting Station
Clear Clear  
Wind Chill: 43°   Ceiling: Unl
Heat Index: 47°   Visibility: 10mi
Dew Point: 32°   Wind: 9mph
Humidity: 56%   Direction: 130°SE
Pressure: 30.02"   Gusts: NA
Location:  44.41°N, 98.47°W
Report Text: KHON 260355Z AUTO 13008KT 10SM CLR 08/00 A3002 RMK AO2 SLP169 T00830000
Loading
Personal Weather Stations






























Interactive Weather Map
Tropical Storm Tracking
New forecast layout! Learn more

10-Day Weather Forecast

Advertisements
Track Severe Weather on mobile